createdAt,value
2023-02-05T00:06:38.483Z,2.83
2023-02-05T00:14:46.900Z,3.10
2023-02-05T00:22:52.432Z,2.70
2023-02-05T00:31:00.456Z,2.85
2023-02-05T00:39:09.296Z,3.70
2023-02-05T00:47:19.026Z,3.38
2023-02-05T00:55:25.035Z,3.60
2023-02-05T01:03:33.472Z,3.30
2023-02-05T01:11:39.123Z,3.67
2023-02-05T01:19:47.225Z,3.20
2023-02-05T01:27:52.932Z,2.80
2023-02-05T01:36:01.113Z,3.47
2023-02-05T01:44:09.580Z,3.17
2023-02-05T01:52:20.064Z,2.58
2023-02-05T02:00:26.352Z,2.83
2023-02-05T02:08:35.657Z,3.30
2023-02-05T02:16:42.914Z,3.15
2023-02-05T02:25:14.524Z,2.95
2023-02-05T02:33:30.504Z,3.00
2023-02-05T02:41:43.940Z,3.53
2023-02-05T02:49:57.716Z,3.47
2023-02-05T02:58:06.548Z,3.97
2023-02-05T03:06:15.761Z,3.80
2023-02-05T03:14:21.527Z,3.65
2023-02-05T03:22:29.994Z,3.38
2023-02-05T03:30:46.748Z,3.75
2023-02-05T03:39:14.588Z,4.00
2023-02-05T03:47:35.543Z,4.82
2023-02-05T03:55:49.329Z,6.45
2023-02-05T04:03:55.395Z,5.20
2023-02-05T04:12:04.712Z,4.30
2023-02-05T04:20:12.822Z,5.03
2023-02-05T04:28:21.315Z,4.57
2023-02-05T04:36:27.749Z,3.33
2023-02-05T04:44:49.268Z,4.28
2023-02-05T04:52:55.031Z,4.40
2023-02-05T05:01:03.142Z,4.60
2023-02-05T05:09:08.760Z,4.25
2023-02-05T05:17:16.717Z,4.13
2023-02-05T05:25:22.099Z,4.03
2023-02-05T05:33:30.118Z,3.92
2023-02-05T05:41:47.888Z,3.92
2023-02-05T05:49:56.523Z,4.03
2023-02-05T05:58:01.834Z,3.75
2023-02-05T06:06:11.838Z,3.72
2023-02-05T06:14:18.307Z,3.85
2023-02-05T06:22:26.673Z,3.53
2023-02-05T06:30:32.233Z,3.75
2023-02-05T06:38:41.078Z,3.83
2023-02-05T06:46:49.124Z,3.20
2023-02-05T06:54:57.534Z,6.20
2023-02-05T07:03:05.957Z,4.20
2023-02-05T07:11:14.016Z,3.90
2023-02-05T07:19:19.972Z,4.53
2023-02-05T07:27:28.052Z,3.42
2023-02-05T07:35:35.694Z,3.00
2023-02-05T07:43:45.035Z,3.75
2023-02-05T07:51:50.591Z,3.45
2023-02-05T07:59:58.714Z,2.92
2023-02-05T08:08:04.196Z,3.72
2023-02-05T08:16:12.708Z,3.92
2023-02-05T08:24:21.771Z,4.07
2023-02-05T08:32:30.000Z,3.38
2023-02-05T08:40:35.554Z,3.75
2023-02-05T08:48:44.462Z,3.40
2023-02-05T08:56:53.639Z,3.45
2023-02-05T09:05:08.917Z,3.83
2023-02-05T09:13:15.023Z,3.70
2023-02-05T09:21:23.799Z,3.47
2023-02-05T09:29:29.372Z,3.33
2023-02-05T09:37:39.400Z,3.33
2023-02-05T09:45:56.262Z,3.42
2023-02-05T09:54:10.853Z,3.80
2023-02-05T10:02:29.376Z,5.03
2023-02-05T10:10:41.992Z,3.72
2023-02-05T10:19:02.612Z,5.63
2023-02-05T10:27:18.422Z,3.95
2023-02-05T10:35:27.611Z,5.03
2023-02-05T10:43:42.559Z,4.78
2023-02-05T10:51:48.797Z,4.03
2023-02-05T10:59:59.861Z,5.35
2023-02-05T11:08:06.522Z,4.82
2023-02-05T11:16:16.102Z,4.63
2023-02-05T11:24:33.922Z,5.40
2023-02-05T11:32:42.128Z,4.88
2023-02-05T11:40:55.720Z,6.65
2023-02-05T11:49:06.169Z,5.75
2023-02-05T11:57:32.844Z,5.40
2023-02-05T12:05:45.444Z,5.55
2023-02-05T12:14:02.304Z,5.90
2023-02-05T12:22:19.666Z,5.22
2023-02-05T12:30:36.187Z,6.07
2023-02-05T12:38:53.866Z,5.75
2023-02-05T12:47:11.767Z,5.95
2023-02-05T12:55:33.265Z,4.70
2023-02-05T13:03:45.581Z,3.97
2023-02-05T13:11:59.364Z,3.97
2023-02-05T13:20:07.352Z,4.95
2023-02-05T13:28:44.191Z,5.10
2023-02-05T13:37:25.692Z,5.75
2023-02-05T13:46:03.864Z,6.55
2023-02-05T13:54:49.761Z,5.97
2023-02-05T14:02:58.980Z,6.90
2023-02-05T14:11:07.023Z,6.40
2023-02-05T14:19:22.080Z,7.50
2023-02-05T14:27:55.778Z,6.65
2023-02-05T14:44:33.168Z,8.55
2023-02-05T14:52:43.836Z,7.25
2023-02-05T15:00:49.319Z,6.60
2023-02-05T15:09:04.550Z,7.55
2023-02-05T15:17:39.842Z,6.90
2023-02-05T15:25:54.777Z,6.50
2023-02-05T15:34:10.488Z,7.18
2023-02-05T15:42:22.481Z,7.93
2023-02-05T15:50:27.906Z,10.65
2023-02-05T15:58:37.931Z,12.88
2023-02-05T16:06:43.550Z,11.80
2023-02-05T16:15:01.549Z,12.90
2023-02-05T16:23:11.208Z,11.82
2023-02-05T16:31:23.522Z,10.80
2023-02-05T16:39:31.829Z,10.83
2023-02-05T16:47:40.804Z,10.55
2023-02-05T16:55:47.084Z,11.35
2023-02-05T17:03:55.151Z,11.07
2023-02-05T17:12:28.438Z,10.57
2023-02-05T17:28:44.568Z,10.27
2023-02-05T17:36:52.629Z,9.18
2023-02-05T17:44:57.967Z,9.40
2023-02-05T17:53:07.556Z,10.50
2023-02-05T18:01:14.665Z,9.95
2023-02-05T18:09:23.338Z,8.90
2023-02-05T18:17:28.803Z,7.90
2023-02-05T18:25:36.953Z,7.40
2023-02-05T18:33:42.617Z,6.35
2023-02-05T18:41:51.408Z,6.45
2023-02-05T18:49:57.887Z,8.38
2023-02-05T18:58:07.332Z,7.93
2023-02-05T19:06:14.645Z,8.85
2023-02-05T19:14:24.776Z,9.65
2023-02-05T19:22:30.444Z,9.57
2023-02-05T19:30:39.478Z,9.38
2023-02-05T19:38:45.638Z,9.77
2023-02-05T19:46:59.172Z,10.15
2023-02-05T19:55:05.536Z,10.57
2023-02-05T20:03:14.822Z,10.20
2023-02-05T20:11:21.534Z,10.40
2023-02-05T20:19:29.547Z,11.00
2023-02-05T20:27:35.817Z,9.23
2023-02-05T20:35:44.571Z,8.73
2023-02-05T20:43:50.732Z,10.60
2023-02-05T20:51:59.368Z,10.13
2023-02-05T21:00:04.924Z,7.65
2023-02-05T21:08:13.181Z,8.30
2023-02-05T21:16:20.395Z,8.95
2023-02-05T21:24:28.986Z,7.68
2023-02-05T21:32:34.504Z,8.60
2023-02-05T21:40:42.967Z,9.13
2023-02-05T21:48:51.795Z,8.43
2023-02-05T21:57:00.210Z,10.70
2023-02-05T22:05:05.693Z,8.05
2023-02-05T22:13:13.912Z,8.07
2023-02-05T22:21:21.526Z,7.85
2023-02-05T22:29:29.591Z,7.50
2023-02-05T22:37:35.137Z,7.25
2023-02-05T22:45:43.235Z,6.30
2023-02-05T22:53:49.517Z,6.82
2023-02-05T23:01:57.724Z,6.18
2023-02-05T23:10:03.177Z,6.50
2023-02-05T23:18:11.267Z,7.38
2023-02-05T23:26:19.103Z,6.43
2023-02-05T23:34:27.165Z,9.32
2023-02-05T23:42:32.637Z,7.07
2023-02-05T23:50:42.657Z,6.40
2023-02-05T23:58:47.985Z,6.18
